createdAt,value
2022-10-19T00:01:15.675Z,6.35
2022-10-19T00:03:44.479Z,6.20
2022-10-19T00:06:14.874Z,6.57
2022-10-19T00:08:43.074Z,6.45
2022-10-19T00:11:11.779Z,5.93
2022-10-19T00:13:41.294Z,6.00
2022-10-19T00:16:11.700Z,7.18
2022-10-19T00:18:39.866Z,6.50
2022-10-19T00:21:09.677Z,6.75
2022-10-19T00:23:37.738Z,6.80
2022-10-19T00:26:05.685Z,6.50
2022-10-19T00:28:33.994Z,6.35
2022-10-19T00:31:05.547Z,7.07
2022-10-19T00:33:33.562Z,6.53
2022-10-19T00:36:01.395Z,5.88
2022-10-19T00:38:29.061Z,6.10
2022-10-19T00:40:56.701Z,7.00
2022-10-19T00:43:27.814Z,6.22
2022-10-19T00:45:55.461Z,7.00
2022-10-19T00:48:28.334Z,6.70
2022-10-19T00:50:58.267Z,7.57
2022-10-19T00:53:28.597Z,6.45
2022-10-19T00:55:58.360Z,7.20
2022-10-19T00:58:25.983Z,6.38
2022-10-19T01:00:54.080Z,6.88
2022-10-19T01:03:24.077Z,6.55
2022-10-19T01:05:52.305Z,7.03
2022-10-19T01:08:20.093Z,6.47
2022-10-19T01:10:54.992Z,6.55
2022-10-19T01:13:38.225Z,7.18
2022-10-19T01:16:13.139Z,7.00
2022-10-19T01:18:46.926Z,6.60
2022-10-19T01:21:24.563Z,6.93
2022-10-19T01:24:27.399Z,6.25
2022-10-19T01:27:18.962Z,6.55
2022-10-19T01:30:02.770Z,6.97
2022-10-19T01:32:39.337Z,6.63
2022-10-19T01:35:11.766Z,7.00
2022-10-19T01:37:47.582Z,7.32
2022-10-19T01:40:25.677Z,7.53
2022-10-19T01:43:02.340Z,7.60
2022-10-19T01:45:37.789Z,7.32
2022-10-19T01:48:11.929Z,8.85
2022-10-19T01:50:44.539Z,8.25
2022-10-19T01:53:14.769Z,7.85
2022-10-19T01:55:45.934Z,9.50
2022-10-19T01:58:19.121Z,8.70
2022-10-19T02:00:51.726Z,8.45
2022-10-19T02:03:20.659Z,8.40
2022-10-19T02:05:50.516Z,8.88
2022-10-19T02:08:23.423Z,8.57
2022-10-19T02:10:51.571Z,9.48
2022-10-19T02:13:21.767Z,9.45
2022-10-19T02:15:53.683Z,9.40
2022-10-19T02:18:27.890Z,9.40
2022-10-19T02:20:56.517Z,8.68
2022-10-19T02:23:27.456Z,8.95
2022-10-19T02:25:56.595Z,8.52
2022-10-19T02:31:00.151Z,9.13
2022-10-19T02:33:29.734Z,9.45
2022-10-19T02:35:58.704Z,10.02
2022-10-19T02:38:27.146Z,8.95
2022-10-19T02:41:04.059Z,8.43
2022-10-19T02:43:35.411Z,10.23
2022-10-19T02:46:08.411Z,8.77
2022-10-19T02:48:37.341Z,9.50
2022-10-19T02:51:05.680Z,9.35
2022-10-19T02:53:33.333Z,9.32
2022-10-19T02:56:01.000Z,10.30
2022-10-19T02:58:28.579Z,10.07
2022-10-19T03:00:56.133Z,10.18
2022-10-19T03:03:25.138Z,11.18
2022-10-19T03:05:52.675Z,10.32
2022-10-19T03:08:20.261Z,10.48
2022-10-19T03:10:47.834Z,10.18
2022-10-19T03:13:15.429Z,10.20
2022-10-19T03:15:42.962Z,11.00
2022-10-19T03:18:10.534Z,9.80
2022-10-19T03:20:39.432Z,9.68
2022-10-19T03:23:07.028Z,9.63
2022-10-19T03:25:34.608Z,10.00
2022-10-19T03:28:02.163Z,10.48
2022-10-19T03:30:29.813Z,10.27
2022-10-19T03:32:57.748Z,10.32
2022-10-19T03:35:25.342Z,10.77
2022-10-19T03:37:54.259Z,10.60
2022-10-19T03:40:21.881Z,10.07
2022-10-19T03:42:49.494Z,9.43
2022-10-19T03:45:17.185Z,9.52
2022-10-19T03:47:44.774Z,10.15
2022-10-19T03:50:14.142Z,10.05
2022-10-19T03:52:41.765Z,10.00
2022-10-19T03:55:11.356Z,9.48
2022-10-19T03:57:39.152Z,10.10
2022-10-19T04:00:07.629Z,10.40
2022-10-19T04:02:35.213Z,9.55
2022-10-19T04:05:03.547Z,10.32
2022-10-19T04:07:31.259Z,9.82
2022-10-19T04:09:59.116Z,10.25
2022-10-19T04:12:28.083Z,10.10
2022-10-19T04:14:57.802Z,9.73
2022-10-19T04:17:26.399Z,9.55
2022-10-19T04:19:53.947Z,10.23
2022-10-19T04:22:21.602Z,9.98
2022-10-19T04:24:49.198Z,10.10
2022-10-19T04:27:16.764Z,9.93
2022-10-19T04:29:45.676Z,9.85
2022-10-19T04:32:13.239Z,10.15
2022-10-19T04:34:40.867Z,9.35
2022-10-19T04:37:08.445Z,9.25
2022-10-19T04:39:39.449Z,9.82
2022-10-19T04:42:07.092Z,9.75
2022-10-19T04:44:34.718Z,9.40
2022-10-19T04:47:03.693Z,8.90
2022-10-19T04:49:31.294Z,9.18
2022-10-19T04:51:58.857Z,9.23
2022-10-19T04:54:26.456Z,9.18
2022-10-19T04:56:54.251Z,9.90
2022-10-19T04:59:21.842Z,10.23
2022-10-19T05:01:49.831Z,10.65
2022-10-19T05:04:18.739Z,9.00
2022-10-19T05:06:46.366Z,9.43
2022-10-19T05:09:14.164Z,8.32
2022-10-19T05:11:41.765Z,9.20
2022-10-19T05:14:09.433Z,8.05
2022-10-19T05:16:37.133Z,9.63
2022-10-19T05:19:04.690Z,8.60
2022-10-19T05:21:33.707Z,9.73
2022-10-19T05:24:01.262Z,8.80
2022-10-19T05:26:30.216Z,9.43
2022-10-19T05:29:01.499Z,9.60
2022-10-19T05:31:31.481Z,8.98
2022-10-19T05:33:59.612Z,9.77
2022-10-19T05:36:29.419Z,10.63
2022-10-19T05:38:59.086Z,9.82
2022-10-19T05:41:27.614Z,9.80
2022-10-19T05:43:57.478Z,10.50
2022-10-19T05:46:26.941Z,10.50
2022-10-19T05:48:56.749Z,12.88
2022-10-19T05:51:25.731Z,11.48
2022-10-19T05:53:54.122Z,11.52
2022-10-19T05:56:24.921Z,10.43
2022-10-19T05:58:52.968Z,11.27
2022-10-19T06:01:21.297Z,11.35
2022-10-19T06:03:53.458Z,10.75
2022-10-19T06:06:21.245Z,10.20
2022-10-19T06:08:49.212Z,10.25
2022-10-19T06:11:18.291Z,10.68
2022-10-19T06:13:50.303Z,12.00
2022-10-19T06:16:19.911Z,10.85
2022-10-19T06:18:47.966Z,11.88
2022-10-19T06:21:17.238Z,11.75
2022-10-19T06:23:45.076Z,11.82
2022-10-19T06:26:14.893Z,10.70
2022-10-19T06:28:44.442Z,12.23
2022-10-19T06:31:14.724Z,11.30
2022-10-19T06:33:45.973Z,11.68
2022-10-19T06:36:18.841Z,11.43
2022-10-19T06:38:46.549Z,12.45
2022-10-19T06:41:14.156Z,12.32
2022-10-19T06:43:43.138Z,10.88
2022-10-19T06:46:15.547Z,10.65
2022-10-19T06:48:43.227Z,12.15
2022-10-19T06:51:11.806Z,11.32
2022-10-19T06:53:39.419Z,10.73
2022-10-19T06:56:07.914Z,11.00
2022-10-19T06:58:36.562Z,10.95
2022-10-19T07:01:07.460Z,10.85
2022-10-19T07:03:37.742Z,11.10
2022-10-19T07:06:07.665Z,11.80
2022-10-19T07:08:36.259Z,10.85
2022-10-19T07:11:06.159Z,11.48
2022-10-19T07:13:34.098Z,11.77
2022-10-19T07:16:05.570Z,11.02
2022-10-19T07:18:33.487Z,10.60
2022-10-19T07:21:05.312Z,11.77
2022-10-19T07:23:34.936Z,11.27
2022-10-19T07:26:06.335Z,11.07
2022-10-19T07:28:35.111Z,11.48
2022-10-19T07:31:06.742Z,11.65
2022-10-19T07:33:34.618Z,10.55
2022-10-19T07:36:06.035Z,10.15
2022-10-19T07:38:34.726Z,10.88
2022-10-19T07:41:04.747Z,11.35
2022-10-19T07:43:32.750Z,12.20
2022-10-19T07:46:01.829Z,12.00
2022-10-19T07:48:29.742Z,11.77
2022-10-19T07:50:57.379Z,12.38
2022-10-19T07:53:26.607Z,12.82
2022-10-19T07:55:54.235Z,12.40
2022-10-19T07:58:21.927Z,14.65
2022-10-19T08:00:49.484Z,14.63
2022-10-19T08:06:06.517Z,12.95
2022-10-19T08:08:35.741Z,13.40
2022-10-19T08:11:07.790Z,14.00
2022-10-19T08:13:35.740Z,12.77
2022-10-19T08:16:03.374Z,14.32
2022-10-19T08:21:03.209Z,13.35
2022-10-19T08:23:30.758Z,14.82
2022-10-19T08:26:00.084Z,15.13
2022-10-19T08:28:27.659Z,16.20
2022-10-19T08:30:58.833Z,17.02
2022-10-19T08:33:27.232Z,16.63
2022-10-19T08:35:55.117Z,17.65
2022-10-19T08:38:22.777Z,16.98
2022-10-19T08:40:50.403Z,16.80
2022-10-19T08:43:24.636Z,15.60
2022-10-19T08:46:00.185Z,15.75
2022-10-19T08:48:32.867Z,17.40
2022-10-19T08:51:01.963Z,17.00
2022-10-19T08:53:38.378Z,17.08
2022-10-19T08:56:38.838Z,18.33
2022-10-19T08:59:15.107Z,17.27
2022-10-19T09:01:50.758Z,17.35
2022-10-19T09:04:24.818Z,19.80
2022-10-19T09:07:22.618Z,19.52
2022-10-19T09:09:52.241Z,19.65
2022-10-19T09:12:25.869Z,18.25
2022-10-19T09:15:00.632Z,19.10
2022-10-19T09:17:29.259Z,19.33
2022-10-19T09:19:57.834Z,17.90
2022-10-19T09:22:32.188Z,18.00
2022-10-19T09:25:04.244Z,16.67
2022-10-19T09:27:37.366Z,16.90
2022-10-19T09:30:15.623Z,15.85
2022-10-19T09:32:43.380Z,15.85
2022-10-19T09:35:23.046Z,16.25
2022-10-19T09:37:52.522Z,16.25
2022-10-19T09:40:22.501Z,15.48
2022-10-19T09:42:56.838Z,14.75
2022-10-19T09:45:36.813Z,14.18
2022-10-19T09:48:17.682Z,14.20
2022-10-19T09:50:46.233Z,13.93
2022-10-19T09:53:20.597Z,13.88
2022-10-19T09:55:52.232Z,13.85
2022-10-19T09:58:21.250Z,12.13
2022-10-19T10:00:54.800Z,12.10
2022-10-19T10:03:28.403Z,11.63
2022-10-19T10:05:58.633Z,11.50
2022-10-19T10:08:28.454Z,10.85
2022-10-19T10:11:02.445Z,11.50
2022-10-19T10:13:30.092Z,10.88
2022-10-19T10:16:02.356Z,9.80
2022-10-19T10:18:30.817Z,10.45
2022-10-19T10:21:01.891Z,10.57
2022-10-19T10:23:32.496Z,10.43
2022-10-19T10:26:01.586Z,10.43
2022-10-19T10:28:31.095Z,10.30
2022-10-19T10:31:04.552Z,10.70
2022-10-19T10:36:25.816Z,9.88
2022-10-19T10:39:04.328Z,10.82
2022-10-19T10:41:37.957Z,10.25
2022-10-19T10:44:09.651Z,10.70
2022-10-19T10:46:47.097Z,9.70
2022-10-19T10:49:22.100Z,10.60
2022-10-19T10:51:53.728Z,10.52
2022-10-19T10:54:22.982Z,10.85
2022-10-19T10:57:06.317Z,11.43
2022-10-19T10:59:41.740Z,12.18
2022-10-19T11:05:02.860Z,12.82
2022-10-19T11:07:33.891Z,11.65
2022-10-19T11:10:09.752Z,13.38
2022-10-19T11:12:40.783Z,12.45
2022-10-19T11:15:18.610Z,11.88
2022-10-19T11:17:56.655Z,12.05
2022-10-19T11:20:28.879Z,11.15
2022-10-19T11:23:07.831Z,11.93
2022-10-19T11:25:47.055Z,11.82
2022-10-19T11:28:27.734Z,10.35
2022-10-19T11:31:02.297Z,9.20
2022-10-19T11:33:48.731Z,9.80
2022-10-19T11:36:30.978Z,9.70
2022-10-19T11:39:22.709Z,9.70
2022-10-19T11:42:01.324Z,10.68
2022-10-19T11:44:42.566Z,9.77
2022-10-19T11:47:35.057Z,10.30
2022-10-19T11:50:20.498Z,8.65
2022-10-19T11:52:55.916Z,7.88
2022-10-19T11:55:34.310Z,7.75
2022-10-19T11:58:13.446Z,7.22
2022-10-19T12:00:50.216Z,7.63
2022-10-19T12:03:42.056Z,6.20
2022-10-19T12:06:18.639Z,6.65
2022-10-19T12:09:03.030Z,5.97
2022-10-19T12:11:44.227Z,6.03
2022-10-19T12:14:16.789Z,6.80
2022-10-19T12:16:49.702Z,6.30
2022-10-19T12:19:21.164Z,5.50
2022-10-19T12:21:52.065Z,5.38
2022-10-19T12:24:24.530Z,5.30
2022-10-19T12:26:54.822Z,5.80
2022-10-19T12:29:25.797Z,6.22
2022-10-19T12:31:55.399Z,6.15
2022-10-19T12:34:32.328Z,5.93
2022-10-19T12:37:08.671Z,5.32
2022-10-19T12:39:44.141Z,5.30
2022-10-19T12:42:22.623Z,5.00
2022-10-19T12:45:22.620Z,5.55
2022-10-19T12:48:20.794Z,5.88
2022-10-19T12:51:13.443Z,5.55
2022-10-19T12:53:46.981Z,6.18
2022-10-19T12:56:19.799Z,5.95
2022-10-19T12:58:54.977Z,7.03
2022-10-19T13:01:26.555Z,6.78
2022-10-19T13:04:08.544Z,7.22
2022-10-19T13:06:38.252Z,7.15
2022-10-19T13:09:10.161Z,6.95
2022-10-19T13:11:57.870Z,7.07
2022-10-19T13:14:47.971Z,7.88
2022-10-19T13:17:40.776Z,7.40
2022-10-19T13:20:49.108Z,7.20
2022-10-19T13:23:39.958Z,6.90
2022-10-19T13:26:32.410Z,7.05
2022-10-19T13:29:00.817Z,6.88
2022-10-19T13:31:30.379Z,6.05
2022-10-19T13:33:58.689Z,5.97
2022-10-19T13:36:27.191Z,5.68
2022-10-19T13:39:15.360Z,6.88
2022-10-19T13:41:53.827Z,6.35
2022-10-19T13:44:25.902Z,6.38
2022-10-19T13:47:21.716Z,5.28
2022-10-19T13:50:07.449Z,5.40
2022-10-19T13:53:08.383Z,6.10
2022-10-19T13:56:00.482Z,5.38
2022-10-19T13:58:58.991Z,5.18
2022-10-19T14:01:40.372Z,5.68
2022-10-19T14:04:20.718Z,5.18
2022-10-19T14:06:53.507Z,5.47
2022-10-19T14:09:45.563Z,4.90
2022-10-19T14:12:19.614Z,5.75
2022-10-19T14:14:48.550Z,5.70
2022-10-19T14:19:54.238Z,5.07
2022-10-19T14:22:26.794Z,5.05
2022-10-19T14:25:02.458Z,5.05
2022-10-19T14:27:31.491Z,5.32
2022-10-19T14:30:00.811Z,4.38
2022-10-19T14:32:30.413Z,4.88
2022-10-19T14:37:37.845Z,4.53
2022-10-19T14:40:09.591Z,3.83
2022-10-19T14:42:42.968Z,4.07
2022-10-19T14:45:15.559Z,3.78
2022-10-19T14:47:54.057Z,5.28
2022-10-19T14:50:25.302Z,4.32
2022-10-19T14:52:58.278Z,5.82
2022-10-19T14:55:31.937Z,5.32
2022-10-19T14:57:59.825Z,5.70
2022-10-19T15:00:32.736Z,4.90
2022-10-19T15:03:03.270Z,5.15
2022-10-19T15:05:34.041Z,5.13
2022-10-19T15:08:08.752Z,5.20
2022-10-19T15:10:43.593Z,5.75
2022-10-19T15:13:22.755Z,5.00
2022-10-19T15:15:54.550Z,5.35
2022-10-19T15:18:47.531Z,5.15
2022-10-19T15:21:15.111Z,5.40
2022-10-19T15:23:44.635Z,4.63
2022-10-19T15:26:20.237Z,6.13
2022-10-19T15:28:48.863Z,5.32
2022-10-19T15:31:20.713Z,5.60
2022-10-19T15:33:51.647Z,5.55
2022-10-19T15:36:20.574Z,5.10
2022-10-19T15:38:50.476Z,4.88
2022-10-19T15:41:21.532Z,5.20
2022-10-19T15:43:52.724Z,4.70
2022-10-19T15:46:32.047Z,4.13
2022-10-19T15:49:04.253Z,3.47
2022-10-19T15:51:49.586Z,3.55
2022-10-19T15:54:19.139Z,3.92
2022-10-19T15:56:48.381Z,4.18
2022-10-19T15:59:17.985Z,4.35
2022-10-19T16:01:52.449Z,4.40
2022-10-19T16:04:22.799Z,3.83
2022-10-19T16:06:50.554Z,3.58
2022-10-19T16:09:20.971Z,4.07
2022-10-19T16:11:50.142Z,4.25
2022-10-19T16:16:51.668Z,3.78
2022-10-19T16:19:19.276Z,3.50
2022-10-19T16:21:50.127Z,3.88
2022-10-19T16:24:18.070Z,3.05
2022-10-19T16:26:45.661Z,3.22
2022-10-19T16:29:13.226Z,2.97
2022-10-19T16:31:40.758Z,3.15
2022-10-19T16:34:10.073Z,3.10
2022-10-19T16:36:37.753Z,3.55
2022-10-19T16:39:05.380Z,3.22
2022-10-19T16:41:33.087Z,3.08
2022-10-19T16:44:00.668Z,3.63
2022-10-19T16:46:28.263Z,3.55
2022-10-19T16:48:55.879Z,3.88
2022-10-19T16:51:31.057Z,4.00
2022-10-19T16:53:59.009Z,4.13
2022-10-19T16:56:29.298Z,3.83
2022-10-19T16:58:59.661Z,4.47
2022-10-19T17:01:28.498Z,4.30
2022-10-19T17:03:56.765Z,4.28
2022-10-19T17:06:25.017Z,4.75
2022-10-19T17:11:44.013Z,4.60
2022-10-19T17:14:13.553Z,4.45
2022-10-19T17:16:41.632Z,4.07
2022-10-19T17:19:11.444Z,4.70
2022-10-19T17:21:42.088Z,5.00
2022-10-19T17:24:20.169Z,4.30
2022-10-19T17:26:50.683Z,4.70
2022-10-19T17:29:18.567Z,4.45
2022-10-19T17:31:46.192Z,5.15
2022-10-19T17:34:13.901Z,5.30
2022-10-19T17:36:44.291Z,4.15
2022-10-19T17:39:17.691Z,4.72
2022-10-19T17:41:46.161Z,5.03
2022-10-19T17:44:14.175Z,4.53
2022-10-19T17:46:41.937Z,4.82
2022-10-19T17:49:10.248Z,5.30
2022-10-19T17:51:39.012Z,4.50
2022-10-19T17:54:08.698Z,5.03
2022-10-19T17:56:39.220Z,5.10
2022-10-19T17:59:08.789Z,4.95
2022-10-19T18:01:37.919Z,5.03
2022-10-19T18:04:06.467Z,5.25
2022-10-19T18:06:36.304Z,5.40
2022-10-19T18:09:06.453Z,5.22
2022-10-19T18:11:38.454Z,4.82
2022-10-19T18:14:09.262Z,5.18
2022-10-19T18:16:39.626Z,5.47
2022-10-19T18:19:08.172Z,4.57
2022-10-19T18:21:38.438Z,4.85
2022-10-19T18:24:09.065Z,5.50
2022-10-19T18:26:40.329Z,5.10
2022-10-19T18:29:13.646Z,6.30
2022-10-19T18:31:41.657Z,5.63
2022-10-19T18:34:13.519Z,5.55
2022-10-19T18:36:41.167Z,5.53
2022-10-19T18:39:08.886Z,4.95
2022-10-19T18:41:37.162Z,4.78
2022-10-19T18:44:06.866Z,5.30
2022-10-19T18:46:37.575Z,4.90
2022-10-19T18:49:08.471Z,5.55
2022-10-19T18:51:36.491Z,5.25
2022-10-19T18:54:04.283Z,5.40
2022-10-19T18:56:33.319Z,5.45
2022-10-19T18:59:00.925Z,4.72
2022-10-19T19:01:29.838Z,5.40
2022-10-19T19:04:06.521Z,4.75
2022-10-19T19:06:36.054Z,6.75
2022-10-19T19:09:06.404Z,5.85
2022-10-19T19:11:37.372Z,5.40
2022-10-19T19:14:07.641Z,6.03
2022-10-19T19:16:36.907Z,5.97
2022-10-19T19:19:06.776Z,5.15
2022-10-19T19:21:36.424Z,4.97
2022-10-19T19:24:06.270Z,5.45
2022-10-19T19:26:36.535Z,4.85
2022-10-19T19:29:04.674Z,5.97
2022-10-19T19:31:32.298Z,4.80
2022-10-19T19:34:01.434Z,7.60
2022-10-19T19:36:30.489Z,4.80
2022-10-19T19:38:59.138Z,5.38
2022-10-19T19:41:28.803Z,5.20
2022-10-19T19:43:57.491Z,5.30
2022-10-19T19:46:25.141Z,4.93
2022-10-19T19:48:59.902Z,4.88
2022-10-19T19:51:28.725Z,5.00
2022-10-19T19:53:57.970Z,6.07
2022-10-19T19:56:25.758Z,4.95
2022-10-19T19:58:55.925Z,4.68
2022-10-19T20:01:24.033Z,5.72
2022-10-19T20:03:51.943Z,5.70
2022-10-19T20:06:25.006Z,4.57
2022-10-19T20:08:53.855Z,4.93
2022-10-19T20:11:24.226Z,5.43
2022-10-19T20:13:51.927Z,5.17
2022-10-19T20:16:25.282Z,5.50
2022-10-19T20:18:57.647Z,6.15
2022-10-19T20:21:27.190Z,5.97
2022-10-19T20:23:54.747Z,5.93
2022-10-19T20:26:25.088Z,5.47
2022-10-19T20:28:53.392Z,6.07
2022-10-19T20:31:21.436Z,5.73
2022-10-19T20:33:49.583Z,5.97
2022-10-19T20:36:19.020Z,5.90
2022-10-19T20:38:48.874Z,7.17
2022-10-19T20:41:17.549Z,6.53
2022-10-19T20:43:46.990Z,6.93
2022-10-19T20:46:17.682Z,6.87
2022-10-19T20:48:45.967Z,6.83
2022-10-19T20:51:15.767Z,6.83
2022-10-19T20:53:46.181Z,7.10
2022-10-19T20:56:15.629Z,7.23
2022-10-19T20:58:44.867Z,7.17
2022-10-19T21:01:15.806Z,6.90
2022-10-19T21:03:46.935Z,7.30
2022-10-19T21:06:14.589Z,7.03
2022-10-19T21:08:42.555Z,7.97
2022-10-19T21:11:14.443Z,7.87
2022-10-19T21:13:42.572Z,8.07
2022-10-19T21:16:11.313Z,7.53
2022-10-19T21:18:40.446Z,7.50
2022-10-19T21:21:13.287Z,7.63
2022-10-19T21:23:41.067Z,7.60
2022-10-19T21:26:08.764Z,7.30
2022-10-19T21:28:36.413Z,7.97
2022-10-19T21:31:05.179Z,8.13
2022-10-19T21:33:32.824Z,7.60
2022-10-19T21:36:03.437Z,7.13
2022-10-19T21:38:31.492Z,7.20
2022-10-19T21:40:59.706Z,6.77
2022-10-19T21:43:28.040Z,7.87
2022-10-19T21:45:55.761Z,7.50
2022-10-19T21:48:24.389Z,7.80
2022-10-19T21:50:51.974Z,7.67
2022-10-19T21:53:22.554Z,7.83
2022-10-19T21:55:50.967Z,8.10
2022-10-19T21:58:21.492Z,7.97
2022-10-19T22:00:49.464Z,7.77
2022-10-19T22:03:18.978Z,7.73
2022-10-19T22:05:53.287Z,8.00
2022-10-19T22:08:22.291Z,8.70
2022-10-19T22:10:49.899Z,9.13
2022-10-19T22:13:17.735Z,8.30
2022-10-19T22:15:45.584Z,8.80
2022-10-19T22:18:13.235Z,9.70
2022-10-19T22:20:41.767Z,8.90
2022-10-19T22:23:09.498Z,8.83
2022-10-19T22:25:38.442Z,7.63
2022-10-19T22:28:06.089Z,8.37
2022-10-19T22:30:33.779Z,8.20
2022-10-19T22:33:01.456Z,7.70
2022-10-19T22:35:29.157Z,8.27
2022-10-19T22:37:56.747Z,7.77
2022-10-19T22:40:24.334Z,8.33
2022-10-19T22:42:53.310Z,8.27
2022-10-19T22:45:20.894Z,8.00
2022-10-19T22:47:48.620Z,9.00
2022-10-19T22:50:18.644Z,8.07
2022-10-19T22:52:46.229Z,7.73
2022-10-19T22:55:13.845Z,8.17
2022-10-19T22:57:41.486Z,7.93
2022-10-19T23:00:12.132Z,7.37
2022-10-19T23:02:39.723Z,8.50
2022-10-19T23:05:07.842Z,7.73
2022-10-19T23:07:37.586Z,8.40
2022-10-19T23:10:06.124Z,8.37
2022-10-19T23:12:33.811Z,8.33
2022-10-19T23:15:01.431Z,8.57
2022-10-19T23:17:30.485Z,9.90
2022-10-19T23:19:58.082Z,9.20
2022-10-19T23:22:25.685Z,8.77
2022-10-19T23:24:53.281Z,8.30
2022-10-19T23:27:21.198Z,9.30
2022-10-19T23:29:48.800Z,9.90
2022-10-19T23:32:16.438Z,9.17
2022-10-19T23:34:47.561Z,9.53
2022-10-19T23:37:16.200Z,8.63
2022-10-19T23:39:43.803Z,9.67
2022-10-19T23:42:11.417Z,9.33
2022-10-19T23:44:39.012Z,10.53
2022-10-19T23:47:06.716Z,10.10
2022-10-19T23:49:34.315Z,10.13
2022-10-19T23:52:03.311Z,9.97
2022-10-19T23:54:30.863Z,12.03
2022-10-19T23:56:58.940Z,11.37
2022-10-19T23:59:26.628Z,11.33
